St. Michael, MN

2:22 AM CDT on October 31, 2014 (GMT -0500)
Royal Meadows | Change Station
CLOSE
Current Station
Personal Weather Station
Location: Saint Michael, MN
Elevation: 935 ft
Nearby Weather Stations

Elev 935 ft 45.22 °N, 93.69 °W | Updated 54 seconds ago

Clear
Clear
27.9 °F
Feels Like 21 °F
N
6.9
Wind Variable Wind from NW
Gusts 9.8 mph

Today
High -- | Low -- °F
--% Chance of Precip.
Yesterday
High -- | Low -- °F
Precip. -- in
7:52 AM 6:03 PM
First Quarter, 52% visible
Pressure 30.46 in
Visibility 10.0 miles
Clouds Clear
Windchill 21 °F
Dew Point 13 °F
Humidity 53%
Rainfall 0.00 in
Snow Depth Not available.
UV 0 out of 12
Pollen .40 out of 12
Air Quality Not available.
Flu Activity Not available.
METAR KCFE 310715Z AUTO 32009G14KT 10SM CLR M01/M08 A3046 RMK AO2 T10151085

More Conditions Fewer Conditions

Pressure 30.46 in
Visibility 10.0 miles
Clouds Clear
Windchill 21 °F
Dew Point 13 °F
Humidity 53%
Rainfall 0.00 in
Snow Depth Not available.
UV 0 out of 12
Pollen .40 out of 12
Air Quality Not available.
Flu Activity Not available.
METAR KCFE 310715Z AUTO 32009G14KT 10SM CLR M01/M08 A3046 RMK AO2 T10151085

More Conditions Fewer Conditions

10-Day Weather Forecast

Almanac

Astronomy

Oct. 31, 2014 Rise Set
Actual Time
Civil Twilight
Nautical Twilight
Astronomical Twilight
Moon
Length of Visible Light
Length of Day
Tomorrow will be .
, % of the Moon is Illuminated

Today's Extremes

State Highs State Lows

Community

WunderPhotos

Upload Photos

1,766,573 photos uploaded!

WunderBlogs® & News

Nearby

Air Quality

  Air Quality AQ Index Pollutant
Not available.

Snow Depth

Station Depth Elevation

Earthquake Activity

City Distance Mag. Time & Date
Minimum magnitude displayed is 2.5.

Coastal Water Temperatures

Place Temperature

Nearby Weather Stations